Station: Injune  

  Atmospheric Gas Attenuation - ITU Rec 676-11   ----------------- dB/100km -----------------
Date Time Temp RH % AH g/m3 Dew Point Wind Direction Speed kph Gust kph Barometer mB Rainfall Since 9am 24GHz 47GHz 76GHz 122GHz 134GHz 241GHz
04/05 09:00 20.1 70 12.17 14.5 9 1018.5 0 26.8 30.0 51.1 134.5 137.4 475.5
03/05 09:00 20 70 12.1 14.4 22 1020.9 0.8 26.7 30.0 51.0 134.2 136.9 473.7
02/05 09:00 18 67 10.29 11.9 6 1021.6 0 23.0 27.7 44.8 117.6 115.7 399.6
01/05 09:00 18 69 10.6 12.3 9 1024.7 0 23.6 28.3 46.2 121.3 120.2 415.1
30/04 09:00 18 62 9.52 10.7 9 1025.4 0 21.3 26.6 41.9 109.8 106.0 365.4
29/04 09:00 19 60 9.78 11.2 4 1024.5 0 21.8 26.7 42.3 111.1 107.9 372.2
28/04 09:00 18.5 67 10.6 12.3 15 1022.1 0 23.6 28.1 45.8 120.3 119.2 411.6
27/04 09:00 17 74 10.71 12.4 6 1020.7 0 23.9 28.7 47.0 123.7 122.9 424.4
26/04 09:00 17.5 64 9.54 10.7 7 1013.1 0 21.4 26.3 41.6 109.4 105.8 365.0
25/04 09:00 19.1 61 10 11.4 15 1025.8 0 22.3 27.0 43.2 113.4 110.7 382.1
24/04 09:00 17.8 56 8.5 9.1 2 1026.4 0 19.2 25.1 38.0 99.6 93.3 320.9
23/04 09:00 1013.1
22/04 09:00 16.4 55 7.68 7.3 4 1021.4 0 17.5 24.0 35.4 92.5 84.2 289.1
21/04 09:00 17.1 44 6.4 4.7 4 1013.1 0 14.8 21.7 30.1 78.6 67.6 231.1
20/04 09:00 22.3 30 5.92 4.2 4 1020.3 0 13.6 20.1 26.9 70.1 58.7 200.0
19/04 09:00 19 36 5.87 3.6 6 1019.3 0 13.6 20.7 27.8 72.4 60.5 206.0
18/04 09:00 23.9 48 10.38 12.4 6 1016.9 0 22.8 25.9 41.7 109.6 108.0 373.5
17/04 09:00 23.8 60 12.91 15.6 11 1017.9 0 28.1 29.9 51.7 136.2 140.6 487.4
16/04 09:00 20.7 67 12.06 14.5 2 1020 0 26.6 29.7 50.3 132.4 135.0 467.2
15/04 09:00 20.1 47 8.17 8.6 4 1020.4 0 18.4 23.8 35.5 93.0 86.2 296.3
14/04 09:00 17.7 54 8.15 8.3 2 1020.3 0 18.4 24.4 36.5 95.6 88.5 304.4
13/04 09:00 17.4 49 7.26 6.7 11 1019.7 0 16.6 23.1 33.3 87.1 78.0 267.3
12/04 09:00 20.7 49 8.82 9.7 11 1014.4 0 19.7 24.4 37.4 98.1 92.9 320.0
11/04 09:00 26.4 60 14.94 18.2 1012.4 0 32.3 32.2 57.9 152.9 162.2 563.0
10/04 09:00 25.7 56 13.41 16.4 11 1016.8 0 29.1 30.1 52.4 138.1 143.7 498.2
09/04 09:00 25.2 60 13.97 17.1 7 1018 0 30.3 31.2 55.0 145.2 152.2 527.9
08/04 09:00 23.7 63 13.47 16.3 7 1016.4 0 29.3 30.8 53.9 142.3 148.2 513.7
07/04 09:00 24.5 57 12.76 15.5 7 1016.1 0 27.8 29.4 50.5 133.2 137.2 475.6
06/04 09:00 22.2 61 11.98 14.5 13 1019.6 0 26.3 29.0 49.0 129.0 131.3 454.5
05/04 09:00 22.4 61 12.11 14.7 11 1020 0 26.5 29.2 49.4 130.2 132.7 459.5
04/04 09:00 23 64 13.15 15.8 1020.1 0 28.7 30.7 53.3 140.5 145.6 504.6
03/04 09:00 23.3 53 11.08 13.2 15 1019.8 0 24.3 27.3 44.8 117.9 117.9 407.8
23/02 09:00 25.3 67 15.69 18.8 13 1010.7 0 33.9 33.8 61.8 163.3 174.8 606.7
19/02 09:00 27.4 69 18.16 21.3 4 1013 0 38.9 37.4 71.0 187.7 205.3 713.1
18/02 09:00 26.5 64 16.02 19.1 13 1011.1 0 34.5 33.9 62.3 164.6 176.7 613.6
17/02 09:00 23.1 71 14.68 17.7 26 1010.4 0 32.0 32.9 59.2 156.3 165.4 573.9
16/02 09:00 20 82 14.17 16.9 13 1009.5 6 31.1 33.1 59.3 156.5 164.8 571.1
15/02 09:00 19 94 15.32 18 4 1011 11 33.7 35.7 65.4 172.8 184.4 639.3
14/02 09:00 22.1 95 18.54 21.3 4 1010.1 19 40.3 40.4 77.8 205.7 225.9 784.1
13/02 09:00 26 87 21.18 23.7 11 1006 28 45.5 43.4 86.1 228.1 254.7 884.8
12/02 09:00 31 59 18.89 22.2 13 1005 0 40.2 36.8 70.4 186.3 204.8 712.2
11/02 09:00 31 55 17.61 21.1 9 1011.2 0.2 37.5 34.8 65.3 172.8 188.0 653.4
10/02 09:00 26.1 66 16.16 19.4 4 1013.8 0 34.8 34.4 63.4 167.4 179.9 624.8
09/02 09:00 27 69 17.76 20.9 20 1012.5 0 38.1 36.8 69.5 183.9 200.4 696.3
08/02 09:00 26.1 61 14.93 18.2 15 1014.2 0 32.2 32.3 58.2 153.6 162.9 565.5
07/02 09:00 27 52 13.38 16.3 11 1016.3 0 28.9 29.6 51.4 135.5 140.8 488.5
06/02 09:00 29.1 51 14.73 18.1 7 1017.9 0 31.6 31.1 55.4 146.2 154.5 536.6
05/02 09:00 27.5 54 14.29 17.6 17 1017.6 0 30.8 30.9 54.7 144.4 151.9 527.2
04/02 09:00 24.8 52 11.84 14.5 15 1017.7 0 25.8 27.9 46.8 123.2 125.0 432.9
03/02 09:00 23 67 13.77 16.7 30 1016.8 0 30.0 31.6 55.7 147.0 153.7 532.9
02/02 09:00 30.6 44 13.78 17.2 7 1008.6 3 29.5 28.7 50.2 132.6 138.6 481.3
01/02 09:00 31.6 31 10.25 12.5 22 1006.9 0 22.2 23.3 37.1 97.6 95.9 332.0
31/01 09:00 28.2 54 14.85 18.2 6 1009.3 0 31.9 31.2 56.1 148.1 156.9 544.8
30/01 09:00 25.9 48 11.62 14.1 20 1014.2 0 25.3 27.1 45.2 118.9 120.2 416.3
29/01 09:00 26.6 65 16.36 19.6 26 1012.3 0 35.2 34.5 63.7 168.4 181.4 629.9
28/01 09:00 30.3 51 15.72 19.3 11 1009 0 33.6 31.9 58.0 153.3 164.0 569.7
27/01 09:00 33.2 44 15.84 19.6 4 1008.6 0 33.6 31.0 56.4 149.0 159.5 554.3
25/01 09:00 27.1 66 17.08 20.3 4 1011 0 36.7 35.5 66.4 175.4 190.2 660.6
24/01 09:00 30 42 12.74 15.8 11 1013.3 0 27.4 27.5 47.0 123.8 127.4 442.0
23/01 09:00 29.1 60 17.33 20.6 7 1011.6 0 37.0 35.1 65.8 173.9 188.8 656.1
22/01 09:00 27.8 60 16.14 19.5 6 1007.4 0 34.7 33.5 61.6 162.7 174.9 607.5
21/01 09:00 28 59 16.05 19.4 11 1003.9 0 34.5 33.1 60.8 160.8 172.8 600.1
20/01 09:00 25.3 54 12.64 15.4 13 1005.1 0 27.5 28.5 49.0 129.3 133.1 461.4
19/01 09:00 25.3 75 17.56 20.5 20 1005.1 10 37.9 36.9 69.7 184.5 201.0 698.0
18/01 09:00 31.8 56 18.71 22.1 20 1001.7 0 39.7 36.0 68.7 181.9 199.7 694.6
17/01 09:00 32.9 29 10.27 12.7 6 1001.6 5 22.2 22.8 36.4 95.8 94.2 326.1
16/01 09:00 27.8 62 16.68 20 6 1002.3 0 35.8 34.2 63.6 168.1 181.7 631.2
15/01 09:00 27.6 62 16.49 19.7 24 1006.8 3 35.4 34.1 63.2 167.0 180.1 625.6
14/01 09:00 28.5 67 18.73 21.8 17 1006.5 0.1 40.1 37.6 72.1 190.8 209.6 728.4
13/01 09:00 23 86 17.68 20.6 20 1006.7 2 38.4 38.2 72.5 191.9 209.3 726.6
12/01 09:00 23.1 85 17.57 20.4 28 1008.3 0.4 38.1 38.0 72.0 190.5 207.6 720.6
11/01 09:00 27.1 72 18.63 21.6 24 1008.5 0 40.0 38.2 73.1 193.4 212.3 737.8
10/01 09:00 25.7 66 15.8 18.9 28 1010.8 0 34.1 33.8 62.0 163.8 175.4 609.0
09/01 09:00 25 60 13.81 16.7 22 1013.8 0 30.0 30.9 54.3 143.3 150.0 520.1
08/01 09:00 25.9 63 15.25 18.4 24 1014.9 0 32.9 33.0 59.7 157.7 167.8 582.6
07/01 09:00 25.7 63 15.08 18.2 22 1015.6 0 32.6 32.8 59.2 156.3 166.0 576.2
06/01 09:00 26.5 62 15.52 18.6 4 1011.9 9 33.5 33.1 60.2 159.1 169.9 589.7
05/01 09:00 27 61 15.7 19 2 1010.2 0 33.8 33.1 60.5 159.8 171.0 593.8
04/01 09:00 28 52 14.14 17.5 22 1011.6 0 30.5 30.3 53.5 141.2 148.3 514.7
03/01 09:00 27 62 15.96 19.2 15 1013.5 0 34.3 33.7 61.8 163.2 175.0 607.8
02/01 09:00 1013.1
01/01 09:00 22.9 74 15.12 18 15 1009.2 5 32.9 33.7 61.2 161.6 172.0 596.6
31/12 09:00 28.3 47 12.99 16.2 20 1009.3 0 28.0 28.3 48.7 128.5 132.9 460.9
30/12 09:00 24.6 68 15.3 18.4 11 1011 0 33.2 33.4 60.7 160.4 170.9 593.2
29/12 09:00 26 70 17.04 20.1 20 1013.8 6 36.7 36.0 67.3 177.9 192.8 669.5
24/12 09:00 25.5 82 19.41 22.3 6 1010.1 3 41.8 40.4 78.4 207.5 229.1 795.9
23/12 09:00 28 64 17.41 20.7 4 1009.5 0 37.3 35.6 66.9 177.0 192.4 668.5
22/12 09:00 30.9 55 17.51 21 7 1008.4 0 37.3 34.6 64.8 171.5 186.5 648.2
21/12 09:00 30 49 14.86 18.2 22 1009.5 0 31.8 30.6 54.8 144.9 153.5 533.0
20/12 09:00 30.7 48 15.12 18.7 20 1009.9 0 32.3 30.8 55.4 146.3 155.5 540.1
19/12 09:00 28.5 52 14.54 17.8 19 1013.5 0 31.2 30.8 54.8 144.7 152.7 530.3
18/12 09:00 25.3 53 12.41 15.1 19 1017.7 0 27.0 28.6 48.7 128.3 131.5 455.6
17/12 09:00 23.1 76 15.71 18.6 30 1018.6 0.4 34.1 35.0 64.1 169.4 181.2 628.9
16/12 09:00 24.4 66 14.69 17.6 15 1014.2 0.2 31.9 32.6 58.4 154.3 163.2 566.3
15/12 09:00 30.7 45 14.17 17.7 19 1009.2 3 30.3 29.3 51.7 136.5 143.4 497.9
14/12 09:00 26.4 62 15.43 18.5 13 1008 0.8 33.3 32.8 59.7 157.8 168.4 584.5
13/12 09:00 28.7 53 14.98 18.4 13 1009.7 0 32.2 31.3 56.2 148.6 157.7 547.5
12/12 09:00 25.7 57 13.65 16.6 26 1012.2 0 29.6 30.3 53.1 140.1 146.3 507.5
11/12 09:00 28 56 15.23 18.6 19 1013.3 0 32.7 32.1 58.0 153.1 162.9 565.5
10/12 09:00 29.9 47 14.18 17.6 19 1015.3 0 30.4 29.8 52.6 138.7 145.6 505.6

Last Refresh: 04-May-2026 19:02:27

Bureau of Meteorology